Time;durP1;ratioP1;P1;durP2;ratioP2;P2;SDS_P1;SDS_P2;PMS_P1;PMS_P2;Temp;Humidity;BMP_temperature;BMP_pressure;BME280_temperature;BME280_humidity;BME280_pressure;Samples;Min_cycle;Max_cycle;Signal;HPM_P1;HPM_P2
2021/01/23 00:00:45;;;;;;;1.17;1.17;;;1.40;99.90;;;;;;5070842;28;20183;-75
2021/01/23 00:03:10;;;;;;;1.20;1.20;;;1.40;99.90;;;;;;5069983;28;20196;-76
2021/01/23 00:05:36;;;;;;;1.50;1.40;;;1.30;99.90;;;;;;5070351;28;20663;-76
2021/01/23 00:08:01;;;;;;;1.50;1.40;;;1.40;99.90;;;;;;5070042;28;20182;-76
2021/01/23 00:10:31;;;;;;;1.60;1.50;;;1.30;99.90;;;;;;5070797;28;20573;-75
2021/01/23 00:12:56;;;;;;;1.30;1.30;;;1.40;99.90;;;;;;5069449;28;20439;-75
2021/01/23 00:15:22;;;;;;;1.53;1.43;;;1.40;99.90;;;;;;5069879;28;20791;-75
2021/01/23 00:17:48;;;;;;;1.90;1.80;;;1.40;99.90;;;;;;5068340;28;20183;-75
2021/01/23 00:20:14;;;;;;;2.17;2.00;;;1.40;99.90;;;;;;5069887;28;20181;-75
2021/01/23 00:22:39;;;;;;;1.97;1.67;;;1.40;99.90;;;;;;5069026;28;20233;-75
2021/01/23 00:25:06;;;;;;;2.50;2.30;;;1.40;99.90;;;;;;5068620;28;20263;-75
2021/01/23 00:27:31;;;;;;;4.40;3.10;;;1.40;99.90;;;;;;5065762;28;20180;-75
2021/01/23 00:29:58;;;;;;;3.17;2.90;;;1.40;99.90;;;;;;5068397;28;20415;-76
2021/01/23 00:32:24;;;;;;;4.17;3.87;;;1.30;99.90;;;;;;5068630;28;20184;-75
2021/01/23 00:34:49;;;;;;;4.03;3.73;;;1.30;99.90;;;;;;5069233;28;20405;-75
2021/01/23 00:37:15;;;;;;;4.07;3.73;;;1.40;99.90;;;;;;5068938;28;20460;-74
2021/01/23 00:39:40;;;;;;;4.17;3.87;;;1.40;99.90;;;;;;5068612;28;20300;-75
2021/01/23 00:42:06;;;;;;;4.93;4.00;;;1.40;99.90;;;;;;5068344;28;20240;-75
2021/01/23 00:44:32;;;;;;;5.67;4.03;;;1.40;99.90;;;;;;5068616;28;20212;-75
2021/01/23 00:46:57;;;;;;;4.80;3.80;;;1.40;99.90;;;;;;5068595;28;20204;-75
2021/01/23 00:49:23;;;;;;;4.83;3.80;;;1.40;99.90;;;;;;5068746;28;20270;-75
2021/01/23 00:51:49;;;;;;;6.07;4.67;;;1.40;99.90;;;;;;5068307;28;20176;-74
2021/01/23 00:54:15;;;;;;;4.53;4.13;;;1.40;99.90;;;;;;5061377;28;20916;-74
2021/01/23 00:56:40;;;;;;;6.10;5.10;;;1.40;99.90;;;;;;5063773;28;20243;-74
2021/01/23 00:59:06;;;;;;;5.47;4.77;;;1.40;99.90;;;;;;5065241;28;20213;-75
2021/01/23 01:01:31;;;;;;;5.00;4.50;;;1.50;99.90;;;;;;5072144;28;20669;-74
2021/01/23 01:03:57;;;;;;;8.80;4.80;;;1.50;99.90;;;;;;5065617;28;20713;-75
2021/01/23 01:06:22;;;;;;;5.57;5.00;;;1.60;99.90;;;;;;5064921;28;20701;-75
2021/01/23 01:08:48;;;;;;;6.90;5.80;;;1.50;99.90;;;;;;5065973;28;20263;-75
2021/01/23 01:11:13;;;;;;;6.33;5.80;;;1.50;99.90;;;;;;5062807;28;20219;-75
2021/01/23 01:13:39;;;;;;;7.60;6.70;;;1.50;99.90;;;;;;5062748;28;20190;-75
2021/01/23 01:16:04;;;;;;;7.70;6.17;;;1.50;99.90;;;;;;5069815;28;20850;-75
2021/01/23 01:18:30;;;;;;;7.33;6.47;;;1.50;99.90;;;;;;5068324;28;20189;-75
2021/01/23 01:20:56;;;;;;;7.73;6.67;;;1.50;99.90;;;;;;5067948;28;20180;-74
2021/01/23 01:23:21;;;;;;;10.63;6.80;;;1.50;99.90;;;;;;5068509;28;20218;-75
2021/01/23 01:25:47;;;;;;;9.87;7.37;;;1.60;99.90;;;;;;5068065;28;20247;-75
2021/01/23 01:28:12;;;;;;;9.73;6.90;;;1.50;99.90;;;;;;5068172;28;20644;-75
2021/01/23 01:30:38;;;;;;;8.73;6.77;;;1.50;99.90;;;;;;5068820;28;20175;-75
2021/01/23 01:33:04;;;;;;;8.30;7.50;;;1.50;99.90;;;;;;5068606;28;20184;-76
2021/01/23 01:35:29;;;;;;;13.63;8.53;;;1.40;99.90;;;;;;5068332;28;20237;-75
2021/01/23 01:37:55;;;;;;;9.50;7.83;;;1.50;99.90;;;;;;5064621;28;20860;-75
2021/01/23 01:40:20;;;;;;;7.30;6.60;;;1.50;99.90;;;;;;5064156;28;20177;-75
2021/01/23 01:42:46;;;;;;;9.10;7.00;;;1.50;99.90;;;;;;5063016;28;20565;-75
2021/01/23 01:45:12;;;;;;;7.30;6.60;;;1.60;99.90;;;;;;5064835;28;20207;-75
2021/01/23 01:47:38;;;;;;;6.10;4.70;;;1.50;99.90;;;;;;5068263;28;20760;-75
2021/01/23 01:50:04;;;;;;;5.87;4.63;;;1.50;99.90;;;;;;5064509;28;20411;-75
2021/01/23 01:52:30;;;;;;;6.67;5.70;;;1.60;99.90;;;;;;5062527;28;20429;-75
2021/01/23 01:54:56;;;;;;;5.17;4.40;;;1.60;99.90;;;;;;5067278;28;20426;-75
2021/01/23 01:57:22;;;;;;;4.57;4.13;;;1.60;99.90;;;;;;5063840;28;20177;-75
2021/01/23 01:59:48;;;;;;;3.00;2.80;;;1.60;99.90;;;;;;5063860;28;20182;-75
2021/01/23 02:02:38;;;;;;;3.50;3.20;;;1.60;99.90;;;;;;5071124;28;20430;-75
2021/01/23 02:05:32;;;;;;;2.60;2.40;;;1.60;99.90;;;;;;5061833;28;20432;-75
2021/01/23 02:08:17;;;;;;;2.60;2.40;;;1.60;99.90;;;;;;5056935;28;20423;-75
2021/01/23 02:10:54;;;;;;;3.40;3.10;;;1.60;99.90;;;;;;5064757;28;20401;-75
2021/01/23 02:13:29;;;;;;;2.43;2.23;;;1.70;99.90;;;;;;5061790;28;20419;-75
2021/01/23 02:15:59;;;;;;;2.97;2.77;;;1.70;99.90;;;;;;5062382;28;20505;-75
2021/01/23 02:18:29;;;;;;;2.90;2.67;;;1.70;99.90;;;;;;5063351;28;20795;-74
2021/01/23 02:21:16;;;;;;;2.90;2.70;;;1.70;99.90;;;;;;5063151;28;20872;-74
2021/01/23 02:23:46;;;;;;;2.70;2.50;;;1.70;99.90;;;;;;5060032;28;20465;-74
2021/01/23 02:26:18;;;;;;;3.40;3.10;;;1.60;99.90;;;;;;5061756;28;20460;-74
2021/01/23 02:29:10;;;;;;;3.90;3.50;;;1.70;99.90;;;;;;5062082;28;20415;-74
2021/01/23 02:31:39;;;;;;;3.40;3.17;;;1.70;99.90;;;;;;5070413;28;20479;-74
2021/01/23 02:34:09;;;;;;;3.47;3.10;;;1.70;99.90;;;;;;5064079;28;20451;-74
2021/01/23 02:36:36;;;;;;;3.07;2.83;;;1.70;99.90;;;;;;5059780;28;20440;-74
2021/01/23 02:39:03;;;;;;;3.13;2.77;;;1.70;99.90;;;;;;5065356;28;20437;-74
2021/01/23 02:41:30;;;;;;;2.87;2.60;;;1.70;99.90;;;;;;5059598;28;20453;-74
2021/01/23 02:43:56;;;;;;;2.80;2.47;;;1.70;99.90;;;;;;5067646;28;20969;-74
2021/01/23 02:46:21;;;;;;;2.53;2.43;;;1.70;99.90;;;;;;5064008;28;20438;-74
2021/01/23 02:48:48;;;;;;;2.30;2.10;;;1.70;99.90;;;;;;5063747;28;20168;-74
2021/01/23 02:51:31;;;;;;;2.27;2.17;;;1.70;99.90;;;;;;5060802;28;20183;-74
2021/01/23 02:54:06;;;;;;;2.17;2.07;;;1.70;99.90;;;;;;5063253;28;20932;-74
2021/01/23 02:56:33;;;;;;;2.07;1.97;;;1.70;99.90;;;;;;5062745;28;20448;-74
2021/01/23 02:59:02;;;;;;;1.60;1.50;;;1.70;99.90;;;;;;5064112;28;20435;-74
2021/01/23 03:01:31;;;;;;;1.60;1.50;;;1.70;99.90;;;;;;5066153;28;20804;-74
2021/01/23 03:03:58;;;;;;;1.27;1.27;;;1.80;99.90;;;;;;5062514;28;20968;-74
2021/01/23 03:06:24;;;;;;;1.83;1.63;;;1.70;99.90;;;;;;5061247;28;20451;-74
2021/01/23 03:08:49;;;;;;;2.50;1.60;;;1.80;99.90;;;;;;5062355;28;20526;-74
2021/01/23 03:11:15;;;;;;;1.70;1.60;;;1.70;99.90;;;;;;5061852;28;20188;-74
2021/01/23 03:13:40;;;;;;;1.67;1.53;;;1.70;99.90;;;;;;5063875;28;20214;-74
2021/01/23 03:16:06;;;;;;;2.30;2.20;;;1.80;99.90;;;;;;5062457;28;20211;-74
2021/01/23 03:18:31;;;;;;;1.40;1.30;;;1.80;99.90;;;;;;5061123;28;20187;-74
2021/01/23 03:20:57;;;;;;;1.90;1.80;;;1.80;99.90;;;;;;5057457;28;20201;-74
2021/01/23 03:23:22;;;;;;;4.10;1.67;;;1.80;99.90;;;;;;5061706;28;20216;-74
2021/01/23 03:25:50;;;;;;;1.87;1.73;;;1.80;99.90;;;;;;5062912;28;20269;-74
2021/01/23 03:28:15;;;;;;;1.87;1.77;;;1.90;99.90;;;;;;5064911;28;20185;-74
2021/01/23 03:30:41;;;;;;;2.10;2.00;;;1.80;99.90;;;;;;5062056;28;20436;-74
2021/01/23 03:33:08;;;;;;;2.10;2.00;;;1.80;99.90;;;;;;5067945;28;20176;-74
2021/01/23 03:35:33;;;;;;;2.73;2.07;;;1.80;99.90;;;;;;5063390;28;20460;-75
2021/01/23 03:37:59;;;;;;;1.87;1.77;;;1.90;99.90;;;;;;5061610;28;20430;-74
2021/01/23 03:40:24;;;;;;;2.30;2.20;;;1.90;99.90;;;;;;5067597;28;20191;-74
2021/01/23 03:42:50;;;;;;;1.97;1.87;;;1.90;99.90;;;;;;5061415;28;20691;-74
2021/01/23 03:45:15;;;;;;;2.03;1.83;;;1.90;99.90;;;;;;5061104;28;20218;-74
2021/01/23 03:47:41;;;;;;;2.60;1.93;;;1.90;99.90;;;;;;5061916;28;20716;-74
2021/01/23 03:50:08;;;;;;;1.83;1.73;;;1.90;99.90;;;;;;5065620;28;20168;-74
2021/01/23 03:52:35;;;;;;;1.90;1.80;;;2.00;99.90;;;;;;5059062;28;20177;-74
2021/01/23 03:55:00;;;;;;;2.10;2.00;;;2.00;99.90;;;;;;5062327;28;20451;-74
2021/01/23 03:57:26;;;;;;;2.10;2.00;;;2.00;99.90;;;;;;5058746;28;20429;-74
2021/01/23 03:59:51;;;;;;;3.27;2.00;;;2.00;99.90;;;;;;5066871;28;20173;-74
2021/01/23 04:02:17;;;;;;;3.03;2.30;;;2.00;99.90;;;;;;5061093;28;20192;-74
2021/01/23 04:04:42;;;;;;;3.27;2.67;;;2.00;99.90;;;;;;5059134;28;20610;-74
2021/01/23 04:07:08;;;;;;;2.27;2.17;;;2.00;99.90;;;;;;5056617;28;20232;-74
2021/01/23 04:09:34;;;;;;;5.00;2.50;;;2.00;99.90;;;;;;5061262;28;20178;-74
2021/01/23 04:11:59;;;;;;;2.50;2.30;;;2.00;99.90;;;;;;5063672;28;20623;-74
2021/01/23 04:14:25;;;;;;;2.80;2.60;;;2.10;99.90;;;;;;5061062;28;20679;-75
2021/01/23 04:16:50;;;;;;;2.90;2.70;;;2.10;99.90;;;;;;5061847;28;20206;-75
2021/01/23 04:19:16;;;;;;;2.30;2.20;;;2.20;99.90;;;;;;5059683;28;20186;-75
2021/01/23 04:21:42;;;;;;;4.73;2.50;;;2.20;99.90;;;;;;5064460;28;20234;-74
2021/01/23 04:24:09;;;;;;;2.77;2.57;;;2.20;99.90;;;;;;5059843;28;20454;-74
2021/01/23 04:26:35;;;;;;;3.93;2.70;;;2.10;99.90;;;;;;5061427;28;20456;-74
2021/01/23 04:29:01;;;;;;;3.03;2.73;;;2.10;99.90;;;;;;5057931;28;20797;-75
2021/01/23 04:31:26;;;;;;;1.90;1.80;;;2.10;99.90;;;;;;5065193;28;20420;-75
2021/01/23 04:34:20;;;;;;;3.73;2.03;;;2.10;99.90;;;;;;5069964;28;20181;-74
2021/01/23 04:36:45;;;;;;;2.40;2.20;;;2.10;99.90;;;;;;5067923;28;20212;-74
2021/01/23 04:39:11;;;;;;;2.00;1.90;;;2.10;99.90;;;;;;5060808;28;20492;-74
2021/01/23 04:41:36;;;;;;;2.80;2.03;;;2.20;99.90;;;;;;5066338;28;20187;-75
2021/01/23 04:44:02;;;;;;;2.60;2.40;;;2.10;99.90;;;;;;5065328;28;20202;-75
2021/01/23 04:46:27;;;;;;;1.73;1.63;;;2.20;99.90;;;;;;5063106;28;20209;-75
2021/01/23 04:48:53;;;;;;;2.57;2.37;;;2.20;99.90;;;;;;5066699;28;20213;-74
2021/01/23 04:51:19;;;;;;;3.43;2.20;;;2.20;99.90;;;;;;5064588;28;20182;-75
2021/01/23 04:53:45;;;;;;;2.10;1.90;;;2.10;99.90;;;;;;5066539;28;20206;-75
2021/01/23 04:56:11;;;;;;;2.13;1.93;;;2.10;99.90;;;;;;5065905;28;20547;-75
2021/01/23 04:58:36;;;;;;;2.30;2.10;;;2.10;99.90;;;;;;5067410;28;20567;-75
2021/01/23 05:01:02;;;;;;;1.83;1.70;;;2.10;99.90;;;;;;5063987;28;20647;-75
2021/01/23 05:03:27;;;;;;;2.40;1.87;;;2.00;99.90;;;;;;5068383;28;20208;-74
2021/01/23 05:06:04;;;;;;;1.60;1.50;;;2.00;99.90;;;;;;5064400;28;20719;-75
2021/01/23 05:08:37;;;;;;;1.30;1.20;;;2.00;99.90;;;;;;5061926;28;20220;-75
2021/01/23 05:11:03;;;;;;;1.40;1.30;;;2.00;99.90;;;;;;5063113;28;20424;-75
2021/01/23 05:13:29;;;;;;;1.43;1.30;;;2.00;99.90;;;;;;5064984;28;20422;-75
2021/01/23 05:15:54;;;;;;;2.53;1.83;;;2.00;99.90;;;;;;5064301;28;20452;-75
2021/01/23 05:18:20;;;;;;;2.43;1.33;;;2.00;99.90;;;;;;5061912;28;20238;-75
2021/01/23 05:20:46;;;;;;;1.40;1.30;;;2.00;99.90;;;;;;5062137;28;20185;-75
2021/01/23 05:23:25;;;;;;;2.40;1.40;;;1.90;99.90;;;;;;5064918;28;20296;-75
2021/01/23 05:25:53;;;;;;;3.57;1.40;;;2.00;99.90;;;;;;5062533;28;20454;-75
2021/01/23 05:28:47;;;;;;;2.53;1.07;;;2.00;99.90;;;;;;5063501;28;20425;-75
2021/01/23 05:31:17;;;;;;;2.13;1.43;;;2.00;99.90;;;;;;5056160;28;20839;-75
2021/01/23 05:33:42;;;;;;;1.60;1.50;;;2.00;99.90;;;;;;5066091;28;20425;-75
2021/01/23 05:36:10;;;;;;;1.20;1.20;;;2.00;99.90;;;;;;5061688;28;20974;-75
2021/01/23 05:38:40;;;;;;;2.20;1.20;;;2.00;99.90;;;;;;5061170;28;20186;-75
2021/01/23 05:41:06;;;;;;;1.80;1.70;;;2.00;99.90;;;;;;5063986;28;20811;-75
2021/01/23 05:43:46;;;;;;;1.33;1.20;;;2.00;99.90;;;;;;5063874;28;20441;-75
2021/01/23 05:46:15;;;;;;;5.40;3.73;;;2.00;99.90;;;;;;5064231;28;20277;-74
2021/01/23 05:48:47;;;;;;;1.63;1.53;;;2.00;99.90;;;;;;5063435;28;20782;-75
2021/01/23 05:51:14;;;;;;;2.20;1.60;;;2.00;99.90;;;;;;5068897;28;20505;-75
2021/01/23 05:53:40;;;;;;;4.20;1.67;;;2.00;99.90;;;;;;5066117;28;20433;-75
2021/01/23 05:56:06;;;;;;;1.47;1.37;;;1.90;99.90;;;;;;5064498;28;20459;-75
2021/01/23 05:58:34;;;;;;;3.37;1.87;;;1.90;99.90;;;;;;5066665;28;20414;-74
2021/01/23 06:01:22;;;;;;;2.10;1.50;;;1.90;99.90;;;;;;5059066;28;20611;-72
2021/01/23 06:03:51;;;;;;;1.40;1.30;;;2.00;99.90;;;;;;5065911;28;20801;-72
2021/01/23 06:06:17;;;;;;;2.20;1.13;;;2.00;99.90;;;;;;5063128;28;20482;-72
2021/01/23 06:08:47;;;;;;;1.33;1.23;;;2.00;99.90;;;;;;5065565;28;20432;-72
2021/01/23 06:11:18;;;;;;;1.50;1.40;;;2.00;99.90;;;;;;5060414;28;20407;-73
2021/01/23 06:13:46;;;;;;;1.63;1.53;;;2.00;99.90;;;;;;5066190;28;20508;-72
2021/01/23 06:16:31;;;;;;;1.47;1.40;;;2.10;99.90;;;;;;5062748;28;20546;-73
2021/01/23 06:18:56;;;;;;;1.80;1.70;;;2.00;99.90;;;;;;5063524;28;20509;-72
2021/01/23 06:21:42;;;;;;;1.83;1.73;;;2.00;99.90;;;;;;5065513;28;20537;-73
2021/01/23 06:24:08;;;;;;;1.77;1.67;;;2.00;99.90;;;;;;5063929;28;20205;-74
2021/01/23 06:26:53;;;;;;;1.43;1.33;;;2.10;99.90;;;;;;5062934;28;20814;-73
2021/01/23 06:29:32;;;;;;;2.43;1.33;;;2.00;99.90;;;;;;5063136;28;20276;-74
2021/01/23 06:31:57;;;;;;;4.97;1.67;;;2.00;99.90;;;;;;5061585;28;20410;-74
2021/01/23 06:34:25;;;;;;;2.13;1.77;;;2.10;99.90;;;;;;5068068;28;20492;-74
2021/01/23 06:37:29;;;;;;;2.23;1.40;;;2.10;99.90;;;;;;5062892;28;20211;-73
2021/01/23 06:40:36;;;;;;;2.23;2.00;;;2.10;99.90;;;;;;5060620;28;20502;-73
2021/01/23 06:43:05;;;;;;;1.90;1.60;;;2.10;99.90;;;;;;5040109;28;20528;-73
2021/01/23 06:45:35;;;;;;;4.40;1.93;;;2.10;99.90;;;;;;5062240;28;20484;-73
2021/01/23 06:48:01;;;;;;;2.13;2.00;;;2.00;99.90;;;;;;5061518;28;20459;-73
2021/01/23 06:50:38;;;;;;;2.17;1.90;;;2.00;99.90;;;;;;5063497;28;20913;-74
2021/01/23 06:53:06;;;;;;;2.40;1.47;;;1.90;99.90;;;;;;5062218;28;20172;-73
2021/01/23 06:55:52;;;;;;;1.87;1.77;;;1.80;99.90;;;;;;5061062;28;20563;-73
2021/01/23 06:58:25;;;;;;;2.07;1.97;;;1.90;99.90;;;;;;5066689;28;20425;-73
2021/01/23 07:00:53;;;;;;;3.57;1.70;;;1.90;99.90;;;;;;5064896;28;20798;-69
2021/01/23 07:03:20;;;;;;;1.80;1.70;;;1.90;99.90;;;;;;5066339;28;20463;-71
2021/01/23 07:05:46;;;;;;;2.37;2.17;;;1.90;99.90;;;;;;5065097;28;20454;-72
2021/01/23 07:08:36;;;;;;;1.90;1.80;;;1.90;99.90;;;;;;5066457;28;20419;-71
2021/01/23 07:11:17;;;;;;;3.50;3.00;;;1.90;99.90;;;;;;5061862;28;20454;-71
2021/01/23 07:14:04;;;;;;;3.07;2.83;;;1.90;99.90;;;;;;5063104;28;20530;-71
2021/01/23 07:16:31;;;;;;;2.83;2.60;;;2.00;99.90;;;;;;5061372;28;20863;-70
2021/01/23 07:19:03;;;;;;;2.90;2.70;;;2.00;99.90;;;;;;5062012;28;20434;-70
2021/01/23 07:21:34;;;;;;;3.10;1.70;;;2.10;99.90;;;;;;5060922;28;20443;-70
2021/01/23 07:24:01;;;;;;;2.60;2.40;;;2.10;99.90;;;;;;5065282;28;20522;-70
2021/01/23 07:26:27;;;;;;;2.33;2.13;;;2.00;99.90;;;;;;5059911;28;21226;-70
2021/01/23 07:28:55;;;;;;;2.80;2.60;;;2.00;99.90;;;;;;5060128;28;20553;-71
2021/01/23 07:31:31;;;;;;;3.27;2.10;;;2.00;99.90;;;;;;5064980;28;20559;-71
2021/01/23 07:34:09;;;;;;;2.70;2.50;;;2.10;99.90;;;;;;5068926;28;20475;-71
2021/01/23 07:36:44;;;;;;;5.03;3.10;;;2.10;99.90;;;;;;5065965;28;20449;-71
2021/01/23 07:39:12;;;;;;;3.00;2.80;;;2.10;99.90;;;;;;5062356;28;20408;-72
2021/01/23 07:41:55;;;;;;;2.97;2.77;;;2.20;99.90;;;;;;5062565;28;20426;-72
2021/01/23 07:44:24;;;;;;;2.20;2.00;;;2.20;99.90;;;;;;5067267;28;20549;-72
2021/01/23 07:46:50;;;;;;;2.70;2.50;;;2.20;99.90;;;;;;5063932;28;20450;-71
2021/01/23 07:49:26;;;;;;;2.30;2.20;;;2.20;99.90;;;;;;5058571;28;20435;-71
2021/01/23 07:52:05;;;;;;;8.13;2.80;;;2.20;99.90;;;;;;5064019;28;20272;-70
2021/01/23 07:54:31;;;;;;;4.27;2.70;;;2.30;99.90;;;;;;5058627;28;20443;-71
2021/01/23 07:56:57;;;;;;;5.67;3.30;;;2.40;99.90;;;;;;5063486;28;20454;-72
2021/01/23 07:59:42;;;;;;;8.30;4.97;;;2.40;99.90;;;;;;5059709;28;20694;-72
2021/01/23 08:02:08;;;;;;;3.73;3.40;;;2.50;99.90;;;;;;5066480;28;20798;-71
2021/01/23 08:04:39;;;;;;;4.27;3.37;;;2.50;99.90;;;;;;5060482;28;20445;-71
2021/01/23 08:07:16;;;;;;;3.57;3.27;;;2.50;99.90;;;;;;5065366;28;20984;-71
2021/01/23 08:09:42;;;;;;;4.00;3.60;;;2.50;99.90;;;;;;5064582;28;20436;-74
2021/01/23 08:12:20;;;;;;;5.43;3.97;;;2.70;99.90;;;;;;5064311;28;20532;-73
2021/01/23 08:14:52;;;;;;;4.13;3.57;;;2.70;99.90;;;;;;5066928;28;20179;-72
2021/01/23 08:17:18;;;;;;;8.23;4.13;;;2.80;99.90;;;;;;5065735;28;20432;-73
2021/01/23 08:19:50;;;;;;;3.53;3.00;;;2.90;99.90;;;;;;5064905;28;20421;-73
2021/01/23 08:22:16;;;;;;;3.50;3.20;;;2.90;99.90;;;;;;5064027;28;20213;-73
2021/01/23 08:24:42;;;;;;;2.90;2.20;;;3.00;99.90;;;;;;5065529;28;20512;-73
2021/01/23 08:27:19;;;;;;;6.40;3.60;;;3.00;99.90;;;;;;5067460;28;20577;-72
2021/01/23 08:29:49;;;;;;;4.00;3.40;;;3.00;99.90;;;;;;5062046;28;20662;-71
2021/01/23 08:32:15;;;;;;;3.70;3.40;;;3.10;99.90;;;;;;5062307;28;20468;-74
2021/01/23 08:34:40;;;;;;;2.70;2.50;;;3.10;99.90;;;;;;5062071;28;20476;-73
2021/01/23 08:37:06;;;;;;;2.77;2.57;;;3.10;99.90;;;;;;5064184;28;20440;-73
2021/01/23 08:39:49;;;;;;;3.83;3.50;;;3.10;99.90;;;;;;5063487;28;20187;-73
2021/01/23 08:42:15;;;;;;;3.53;2.70;;;3.20;99.90;;;;;;5065565;28;20215;-73
2021/01/23 08:44:41;;;;;;;3.50;3.00;;;3.20;99.90;;;;;;5059037;28;20467;-73
2021/01/23 08:47:07;;;;;;;100.17;12.40;;;3.30;99.90;;;;;;5068459;28;20424;-73
2021/01/23 08:49:33;;;;;;;43.43;6.73;;;3.40;99.90;;;;;;5064173;28;20212;-73
2021/01/23 08:51:59;;;;;;;2.73;2.23;;;3.40;99.90;;;;;;5062405;28;20434;-73
2021/01/23 08:54:24;;;;;;;39.67;5.63;;;3.50;99.90;;;;;;5063009;28;20885;-75
2021/01/23 08:56:50;;;;;;;64.10;8.80;;;3.50;99.90;;;;;;5067231;28;20212;-73
2021/01/23 08:59:16;;;;;;;41.73;7.37;;;3.50;99.90;;;;;;5062063;28;20185;-73
2021/01/23 09:01:42;;;;;;;17.40;3.27;;;3.60;99.90;;;;;;5062364;28;20683;-72
2021/01/23 09:04:08;;;;;;;26.20;4.70;;;3.70;99.90;;;;;;5068233;28;20248;-73
2021/01/23 09:06:33;;;;;;;5.13;2.60;;;3.70;99.90;;;;;;5065734;28;20201;-72
2021/01/23 09:08:59;;;;;;;6.00;2.30;;;3.70;99.90;;;;;;5068602;28;20394;-73
2021/01/23 09:11:25;;;;;;;2.73;2.03;;;3.70;99.90;;;;;;5064925;28;20608;-72
2021/01/23 09:13:50;;;;;;;3.37;2.10;;;3.80;99.90;;;;;;5062665;28;20212;-73
2021/01/23 09:16:16;;;;;;;48.63;7.00;;;3.70;99.90;;;;;;5063331;28;20214;-73
2021/01/23 09:18:41;;;;;;;8.70;3.00;;;3.80;99.90;;;;;;5060582;28;20189;-72
2021/01/23 09:21:07;;;;;;;51.37;6.53;;;3.80;99.90;;;;;;5063801;28;20572;-73
2021/01/23 09:23:32;;;;;;;5.10;2.57;;;3.80;99.90;;;;;;5058686;28;20689;-72
2021/01/23 09:26:02;;;;;;;20.63;4.67;;;3.80;99.90;;;;;;5063525;28;20216;-73
2021/01/23 09:28:28;;;;;;;2.30;2.10;;;3.80;99.90;;;;;;5062954;28;20658;-74
2021/01/23 09:30:54;;;;;;;5.40;2.80;;;3.80;99.90;;;;;;5066775;28;21225;-74
2021/01/23 09:33:19;;;;;;;2.50;2.30;;;3.80;99.90;;;;;;5069665;28;20432;-73
2021/01/23 09:35:45;;;;;;;6.90;2.57;;;3.90;99.90;;;;;;5061581;28;20206;-74
2021/01/23 09:38:10;;;;;;;102.30;10.13;;;3.90;99.90;;;;;;5064212;28;20207;-71
2021/01/23 09:40:36;;;;;;;43.77;5.77;;;4.00;99.90;;;;;;5064154;28;20181;-73
2021/01/23 09:43:01;;;;;;;95.47;11.03;;;4.00;99.90;;;;;;5064279;28;20207;-75
2021/01/23 09:45:27;;;;;;;39.70;5.70;;;4.00;99.90;;;;;;5066432;28;20209;-74
2021/01/23 09:47:52;;;;;;;16.50;2.50;;;4.10;99.90;;;;;;5062910;28;20188;-74
2021/01/23 09:50:21;;;;;;;10.07;3.57;;;4.00;99.90;;;;;;5047785;28;20185;-74
2021/01/23 09:52:47;;;;;;;6.70;4.43;;;4.10;99.90;;;;;;5060461;28;20647;-74
2021/01/23 09:55:13;;;;;;;9.10;3.20;;;4.10;99.90;;;;;;5067294;28;20458;-74
2021/01/23 09:57:38;;;;;;;4.67;3.73;;;4.30;99.90;;;;;;5064553;28;20429;-74
2021/01/23 10:00:06;;;;;;;4.20;3.00;;;4.40;99.90;;;;;;5063994;28;20422;-76
2021/01/23 10:02:36;;;;;;;7.37;2.00;;;4.60;99.90;;;;;;5068253;28;20178;-74
2021/01/23 10:05:03;;;;;;;9.67;3.63;;;4.80;99.90;;;;;;5066462;28;20483;-73
2021/01/23 10:07:28;;;;;;;10.23;3.63;;;4.80;99.90;;;;;;5073015;28;20453;-74
2021/01/23 10:09:54;;;;;;;4.60;2.80;;;4.90;99.90;;;;;;5068883;28;20427;-74
2021/01/23 10:12:20;;;;;;;42.67;6.97;;;5.00;99.90;;;;;;5071275;28;20668;-74
2021/01/23 10:14:46;;;;;;;26.83;3.50;;;5.10;99.90;;;;;;5067937;28;20503;-74
2021/01/23 10:17:13;;;;;;;8.63;2.20;;;5.20;99.90;;;;;;5059461;28;20654;-74
2021/01/23 10:19:39;;;;;;;23.17;3.70;;;5.30;99.90;;;;;;5063552;28;20206;-74
2021/01/23 10:22:05;;;;;;;16.50;2.50;;;5.60;99.90;;;;;;5063549;28;20448;-71
2021/01/23 10:24:30;;;;;;;11.60;1.83;;;5.70;99.90;;;;;;5062138;28;20560;-74
2021/01/23 10:26:56;;;;;;;2.03;1.80;;;5.90;99.90;;;;;;5068949;28;20249;-76
2021/01/23 10:29:21;;;;;;;2.37;1.83;;;5.80;99.90;;;;;;5067199;28;20183;-74
2021/01/23 10:31:47;;;;;;;1.87;1.77;;;5.70;99.90;;;;;;5065719;28;20207;-74
2021/01/23 10:34:12;;;;;;;2.40;2.20;;;5.70;99.90;;;;;;5066537;28;20644;-75
2021/01/23 10:36:39;;;;;;;3.37;2.37;;;5.70;99.90;;;;;;5065067;28;20203;-75
2021/01/23 10:39:05;;;;;;;2.33;2.23;;;5.70;99.90;;;;;;5067313;28;20191;-76
2021/01/23 10:41:30;;;;;;;2.57;2.37;;;5.80;99.90;;;;;;5065039;28;20431;-73
2021/01/23 10:43:56;;;;;;;4.70;1.83;;;5.80;99.90;;;;;;5060128;28;20219;-75
2021/01/23 10:46:21;;;;;;;3.47;2.20;;;5.80;99.90;;;;;;5068954;28;20203;-73
2021/01/23 10:48:47;;;;;;;2.00;1.90;;;5.70;99.90;;;;;;5066952;28;20227;-73
2021/01/23 10:51:12;;;;;;;2.60;1.93;;;5.70;99.90;;;;;;5069414;28;20187;-74
2021/01/23 10:53:38;;;;;;;1.70;1.60;;;5.80;99.90;;;;;;5068955;28;20202;-74
2021/01/23 10:56:05;;;;;;;2.37;1.67;;;5.80;99.90;;;;;;5065020;28;20207;-73
2021/01/23 10:58:30;;;;;;;2.90;1.80;;;5.80;99.90;;;;;;5068015;28;20236;-73
2021/01/23 11:00:56;;;;;;;1.70;1.60;;;5.80;99.90;;;;;;5073431;28;20435;-74
2021/01/23 11:03:21;;;;;;;1.83;1.73;;;5.80;99.90;;;;;;5065520;28;20582;-73
2021/01/23 11:05:47;;;;;;;3.33;2.43;;;5.80;99.90;;;;;;5070268;28;20672;-73
2021/01/23 11:08:12;;;;;;;1.77;1.67;;;5.90;99.90;;;;;;5064163;28;20173;-74
2021/01/23 11:10:38;;;;;;;1.53;1.43;;;6.10;99.90;;;;;;5067072;28;20791;-77
2021/01/23 11:13:05;;;;;;;2.77;1.80;;;6.10;99.90;;;;;;5068120;28;20638;-75
2021/01/23 11:15:30;;;;;;;1.87;1.70;;;6.30;99.90;;;;;;5065031;28;20768;-75
2021/01/23 11:17:56;;;;;;;3.93;1.80;;;6.50;99.90;;;;;;5068824;28;20432;-76
2021/01/23 11:20:21;;;;;;;2.10;1.50;;;6.50;99.90;;;;;;5062818;28;20201;-76
2021/01/23 11:22:47;;;;;;;1.50;1.40;;;6.70;99.90;;;;;;5066764;28;20604;-76
2021/01/23 11:25:13;;;;;;;4.63;1.57;;;6.60;99.90;;;;;;5067678;28;20213;-73
2021/01/23 11:27:39;;;;;;;2.30;1.40;;;6.70;99.90;;;;;;5067590;28;20187;-74
2021/01/23 11:30:05;;;;;;;3.03;2.10;;;6.80;99.90;;;;;;5067633;28;20425;-74
2021/01/23 11:32:32;;;;;;;4.70;1.70;;;6.90;99.90;;;;;;5062323;28;20170;-74
2021/01/23 11:34:57;;;;;;;2.23;1.60;;;7.10;99.90;;;;;;5067129;28;20556;-75
2021/01/23 11:37:23;;;;;;;2.80;1.50;;;7.20;99.90;;;;;;5065639;28;20546;-76
2021/01/23 11:39:49;;;;;;;3.63;1.53;;;7.30;99.90;;;;;;5063051;28;20658;-76
2021/01/23 11:42:14;;;;;;;2.73;1.50;;;7.30;99.90;;;;;;5062774;28;20659;-76
2021/01/23 11:44:39;;;;;;;2.00;1.70;;;7.30;99.90;;;;;;5061428;28;20205;-77
2021/01/23 11:47:05;;;;;;;1.40;1.30;;;7.40;99.90;;;;;;5067517;28;20208;-76
2021/01/23 11:49:30;;;;;;;1.70;1.60;;;7.50;99.90;;;;;;5065862;28;20186;-77
2021/01/23 11:51:56;;;;;;;2.60;1.90;;;7.60;99.90;;;;;;5061658;28;20211;-75
2021/01/23 11:54:22;;;;;;;4.13;1.87;;;7.70;99.90;;;;;;5061101;28;20550;-75
2021/01/23 11:56:47;;;;;;;3.93;1.63;;;7.70;99.90;;;;;;5058714;28;20226;-76
2021/01/23 11:59:13;;;;;;;1.93;1.63;;;7.60;99.90;;;;;;5064015;28;20660;-75
2021/01/23 12:01:38;;;;;;;3.30;1.67;;;7.60;99.90;;;;;;5063237;28;20193;-76
2021/01/23 12:04:04;;;;;;;2.23;2.13;;;7.50;99.90;;;;;;5062156;28;20548;-76
2021/01/23 12:06:29;;;;;;;3.70;1.57;;;7.40;99.90;;;;;;5065002;28;20199;-76
2021/01/23 12:08:55;;;;;;;5.73;1.60;;;7.40;99.90;;;;;;5060819;28;20205;-76
2021/01/23 12:11:20;;;;;;;1.40;1.30;;;7.40;99.90;;;;;;5060179;28;20176;-75
2021/01/23 12:13:46;;;;;;;1.70;1.60;;;7.30;99.90;;;;;;5060401;28;20698;-75
2021/01/23 12:16:12;;;;;;;2.83;1.70;;;7.20;99.90;;;;;;5059322;28;20280;-76
2021/01/23 12:18:37;;;;;;;2.20;1.53;;;7.20;99.90;;;;;;5061614;28;20187;-76
2021/01/23 12:21:03;;;;;;;2.60;1.67;;;6.90;99.90;;;;;;5058467;28;20186;-77
2021/01/23 12:23:28;;;;;;;6.67;1.83;;;6.70;99.90;;;;;;5061482;28;20761;-76
2021/01/23 12:25:54;;;;;;;7.00;1.60;;;6.50;99.90;;;;;;5059032;28;20259;-76
2021/01/23 12:28:19;;;;;;;1.73;1.50;;;6.50;99.90;;;;;;5060277;28;20213;-76
2021/01/23 12:30:45;;;;;;;3.17;1.60;;;6.60;99.90;;;;;;5060537;28;20181;-75
2021/01/23 12:33:10;;;;;;;1.30;1.10;;;6.70;99.90;;;;;;5058895;28;20198;-76
2021/01/23 12:35:36;;;;;;;2.60;1.43;;;6.70;99.90;;;;;;5061817;28;20281;-76
2021/01/23 12:38:01;;;;;;;8.43;1.50;;;6.60;99.90;;;;;;5066386;28;20707;-76
2021/01/23 12:40:30;;;;;;;2.70;1.23;;;6.60;99.90;;;;;;5060184;28;20180;-76
2021/01/23 12:42:55;;;;;;;2.20;1.17;;;6.60;99.90;;;;;;5060010;28;20272;-76
2021/01/23 12:45:21;;;;;;;3.70;1.07;;;6.60;99.90;;;;;;5060427;28;21059;-76
2021/01/23 12:47:47;;;;;;;5.30;1.90;;;6.70;99.90;;;;;;5060233;28;20189;-76
2021/01/23 12:50:12;;;;;;;1.47;1.00;;;6.60;99.90;;;;;;5071285;28;20541;-75
2021/01/23 12:52:38;;;;;;;4.53;1.13;;;6.60;99.90;;;;;;5061620;28;20571;-77
2021/01/23 12:55:07;;;;;;;2.93;1.43;;;6.60;99.90;;;;;;5069323;28;20197;-76
2021/01/23 12:57:38;;;;;;;1.83;1.40;;;6.70;99.90;;;;;;5066901;28;20193;-77
2021/01/23 13:00:05;;;;;;;2.60;1.50;;;6.70;99.90;;;;;;5068260;28;20458;-77